Time;durP1;ratioP1;P1;durP2;ratioP2;P2;SDS_P1;SDS_P2;PMS_P1;PMS_P2;Temp;Humidity;BMP_temperature;BMP_pressure;BME280_temperature;BME280_humidity;BME280_pressure;Samples;Min_cycle;Max_cycle;Signal;HPM_P1;HPM_P2
2022/04/03 00:03:28;;;;;;;4.80;2.50;;;;;;;-1.88;63.74;99341.55;213133;1278;140600;-64
2022/04/03 00:08:32;;;;;;;8.90;2.50;;;;;;;-1.86;63.73;99342.23;213073;1278;141895;-64
2022/04/03 00:13:36;;;;;;;5.30;2.30;;;;;;;-1.88;64.03;99344.00;214541;1278;140334;-64
2022/04/03 00:18:40;;;;;;;8.10;2.60;;;;;;;-1.92;63.99;99343.89;213055;1277;139229;-65
2022/04/03 00:23:44;;;;;;;3.50;2.60;;;;;;;-1.97;64.08;99345.55;212861;1279;141502;-65
2022/04/03 00:28:47;;;;;;;2.30;1.70;;;;;;;-2.04;64.20;99344.54;213988;1278;140050;-66
2022/04/03 00:33:50;;;;;;;3.30;1.90;;;;;;;-2.13;64.51;99345.98;213502;1278;139499;-66
2022/04/03 00:38:52;;;;;;;4.00;1.90;;;;;;;-2.19;64.56;99345.46;213475;1279;140251;-66
2022/04/03 00:43:55;;;;;;;4.20;2.50;;;;;;;-2.25;64.65;99349.58;214834;1277;139958;-64
2022/04/03 00:48:59;;;;;;;6.90;2.70;;;;;;;-2.28;64.84;99347.84;215616;1277;140157;-64
2022/04/03 00:54:05;;;;;;;6.90;1.90;;;;;;;-2.26;65.05;99343.07;215640;1277;141225;-66
2022/04/03 00:59:09;;;;;;;8.80;2.40;;;;;;;-2.25;64.91;99344.70;215676;1277;140015;-67
2022/04/03 01:04:11;;;;;;;8.50;2.80;;;;;;;-2.27;64.96;99342.32;214266;1277;140661;-65
2022/04/03 01:09:15;;;;;;;3.80;1.70;;;;;;;-2.27;65.15;99347.67;214156;1277;139206;-65
2022/04/03 01:14:35;;;;;;;5.80;2.90;;;;;;;-2.30;65.28;99346.95;214611;1278;139735;-65
2022/04/03 01:19:38;;;;;;;4.90;2.30;;;;;;;-2.33;65.49;99349.16;214073;1279;140316;-63
2022/04/03 01:24:43;;;;;;;4.10;1.80;;;;;;;-2.39;65.42;99350.27;214497;1277;141350;-62
2022/04/03 01:29:48;;;;;;;7.80;3.50;;;;;;;-2.41;65.41;99354.86;214330;1276;140847;-63
2022/04/03 01:34:51;;;;;;;4.40;2.40;;;;;;;-2.42;65.65;99358.64;213388;1276;140174;-62
2022/04/03 01:39:53;;;;;;;4.60;2.90;;;;;;;-2.41;65.70;99362.19;213571;1278;140609;-62
2022/04/03 01:44:55;;;;;;;6.90;3.20;;;;;;;-2.41;65.90;99365.78;213567;1277;141985;-62
2022/04/03 01:49:58;;;;;;;10.10;3.10;;;;;;;-2.47;65.67;99368.02;214060;1278;139500;-62
2022/04/03 01:55:01;;;;;;;2.90;2.40;;;;;;;-2.51;65.80;99368.46;213988;1277;139433;-62
2022/04/03 02:00:06;;;;;;;3.80;2.30;;;;;;;-2.57;65.94;99368.25;214001;1278;139249;-62
2022/04/03 02:05:09;;;;;;;6.50;2.60;;;;;;;-2.62;66.15;99376.44;213779;1278;139717;-61
2022/04/03 02:10:12;;;;;;;10.60;2.70;;;;;;;-2.69;66.20;99374.50;213280;1278;139291;-63
2022/04/03 02:15:15;;;;;;;5.60;2.40;;;;;;;-2.75;66.28;99378.63;214114;1278;141270;-63
2022/04/03 02:20:18;;;;;;;5.30;2.20;;;;;;;-2.80;66.52;99381.91;214114;1277;140687;-63
2022/04/03 02:25:22;;;;;;;5.50;2.50;;;;;;;-2.83;66.59;99387.45;213043;1277;140270;-63
2022/04/03 02:30:26;;;;;;;11.00;2.70;;;;;;;-2.85;66.69;99388.24;213294;1279;139905;-66
2022/04/03 02:35:29;;;;;;;5.80;2.90;;;;;;;-2.87;66.92;99384.10;214238;1279;140216;-65
2022/04/03 02:40:32;;;;;;;7.20;3.60;;;;;;;-2.88;67.03;99385.20;214447;1278;140403;-64
2022/04/03 02:45:35;;;;;;;6.00;4.40;;;;;;;-2.88;67.14;99392.15;214921;1277;142235;-65
2022/04/03 02:50:37;;;;;;;7.30;3.90;;;;;;;-2.88;67.19;99398.80;215607;1277;139869;-65
2022/04/03 02:55:40;;;;;;;5.90;3.20;;;;;;;-2.86;67.31;99400.86;215538;1277;150110;-65
2022/04/03 03:00:43;;;;;;;5.50;3.30;;;;;;;-2.87;67.24;99407.15;215469;1277;140141;-65
2022/04/03 03:05:46;;;;;;;8.20;3.20;;;;;;;-2.86;67.34;99408.79;214831;1278;141512;-65
2022/04/03 03:10:48;;;;;;;6.10;3.00;;;;;;;-2.84;67.49;99405.50;215351;1276;141451;-67
2022/04/03 03:15:52;;;;;;;8.30;3.40;;;;;;;-2.83;67.38;99413.76;214589;1277;141084;-65
2022/04/03 03:20:54;;;;;;;6.30;3.50;;;;;;;-2.86;67.40;99417.20;214769;1279;140368;-65
2022/04/03 03:25:57;;;;;;;6.20;2.90;;;;;;;-2.92;67.40;99424.77;214704;1276;142848;-66
2022/04/03 03:31:01;;;;;;;10.30;3.40;;;;;;;-2.96;67.53;99425.71;214800;1276;143263;-65
2022/04/03 03:36:05;;;;;;;10.30;3.40;;;;;;;-3.00;67.67;99427.68;214011;1276;142669;-65
2022/04/03 03:41:09;;;;;;;11.10;3.80;;;;;;;-3.06;67.77;99431.30;213018;1279;142242;-66
2022/04/03 03:46:12;;;;;;;5.20;3.30;;;;;;;-3.10;67.96;99442.20;213490;1277;141237;-66
2022/04/03 03:51:15;;;;;;;7.60;3.50;;;;;;;-3.14;67.84;99445.03;213824;1277;141820;-66
2022/04/03 03:56:19;;;;;;;4.90;3.20;;;;;;;-3.14;68.18;99449.23;213283;1278;143185;-67
2022/04/03 04:01:22;;;;;;;6.20;3.70;;;;;;;-3.15;68.21;99449.29;213959;1278;141701;-65
2022/04/03 04:06:25;;;;;;;8.30;3.70;;;;;;;-3.20;68.30;99451.02;214140;1277;141286;-68
2022/04/03 04:11:28;;;;;;;6.30;2.90;;;;;;;-3.25;68.29;99460.91;214003;1276;139876;-63
2022/04/03 04:16:30;;;;;;;7.10;2.90;;;;;;;-3.33;68.43;99464.64;214577;1276;139420;-67
2022/04/03 04:21:33;;;;;;;6.50;3.00;;;;;;;-3.38;68.58;99464.39;214046;1278;139754;-65
2022/04/03 04:26:35;;;;;;;4.20;3.80;;;;;;;-3.40;68.69;99472.19;213864;1279;139116;-66
2022/04/03 04:31:38;;;;;;;9.70;4.20;;;;;;;-3.40;68.85;99474.09;212819;1277;141263;-62
2022/04/03 04:36:41;;;;;;;8.40;5.20;;;;;;;-3.35;68.96;99481.36;212961;1277;142747;-64
2022/04/03 04:41:44;;;;;;;8.80;3.70;;;;;;;-3.29;68.95;99487.58;213838;1279;141062;-64
2022/04/03 04:46:46;;;;;;;9.50;4.00;;;;;;;-3.18;69.04;99496.55;213577;1281;140197;-66
2022/04/03 04:51:49;;;;;;;9.80;4.50;;;;;;;-3.03;68.88;99505.87;214874;1277;140250;-64
2022/04/03 04:56:51;;;;;;;11.10;4.30;;;;;;;-2.87;68.89;99509.03;214651;1277;141960;-66
2022/04/03 05:01:56;;;;;;;8.50;3.70;;;;;;;-2.67;68.78;99514.02;213858;1277;141137;-62
2022/04/03 05:06:59;;;;;;;9.40;5.90;;;;;;;-2.49;68.59;99516.83;215298;1277;140031;-63
2022/04/03 05:12:02;;;;;;;6.70;4.30;;;;;;;-2.29;68.42;99522.48;214477;1277;140659;-66
2022/04/03 05:17:06;;;;;;;6.40;4.40;;;;;;;-2.15;68.23;99526.59;215518;1277;140505;-66
2022/04/03 05:22:08;;;;;;;8.80;4.70;;;;;;;-1.99;68.11;99531.85;215350;1276;140513;-65
2022/04/03 05:27:12;;;;;;;9.50;3.70;;;;;;;-1.82;67.82;99535.11;214218;1277;140666;-66
2022/04/03 05:32:14;;;;;;;6.80;3.90;;;;;;;-1.68;67.63;99535.25;214341;1277;140050;-65
2022/04/03 05:37:19;;;;;;;4.20;3.40;;;;;;;-1.55;67.46;99541.02;213171;1277;139278;-66
2022/04/03 05:42:26;;;;;;;7.80;3.80;;;;;;;-1.45;67.26;99548.34;213308;1277;140503;-65
2022/04/03 05:47:30;;;;;;;6.90;4.20;;;;;;;-1.39;67.32;99553.55;213703;1277;139623;-65
2022/04/03 05:52:45;;;;;;;6.40;3.70;;;;;;;-1.33;67.00;99561.63;213699;1277;139836;-65
2022/04/03 05:57:50;;;;;;;5.70;4.10;;;;;;;-1.33;66.83;99567.64;214063;1277;140701;-65
2022/04/03 06:02:58;;;;;;;14.40;6.50;;;;;;;-1.29;66.74;99573.14;213119;1277;140890;-66
2022/04/03 06:08:02;;;;;;;11.00;7.90;;;;;;;-1.27;66.71;99576.35;213739;1277;141037;-63
2022/04/03 06:13:07;;;;;;;7.30;4.40;;;;;;;-1.19;66.78;99581.56;212790;1277;140491;-63
2022/04/03 06:18:14;;;;;;;6.60;5.10;;;;;;;-1.12;66.58;99589.52;214382;1277;139483;-62
2022/04/03 06:23:23;;;;;;;8.40;5.80;;;;;;;-1.03;66.64;99589.06;214013;1277;139634;-65
2022/04/03 06:28:26;;;;;;;5.80;4.70;;;;;;;-0.82;66.26;99593.33;214566;1277;141708;-63
2022/04/03 06:33:30;;;;;;;9.10;4.40;;;;;;;-0.60;66.15;99599.84;213369;1277;140662;-63
2022/04/03 06:38:33;;;;;;;8.50;4.00;;;;;;;-0.35;65.59;99603.52;214987;1277;140831;-63
2022/04/03 06:43:36;;;;;;;5.60;4.90;;;;;;;-0.17;65.39;99605.86;214532;1277;140878;-63
2022/04/03 06:48:38;;;;;;;6.10;4.40;;;;;;;0.10;64.99;99605.48;213857;1277;140957;-63
2022/04/03 06:53:40;;;;;;;5.90;4.30;;;;;;;0.31;64.47;99605.45;214171;1277;139768;-65
2022/04/03 06:58:43;;;;;;;8.00;4.30;;;;;;;0.45;64.46;99608.06;215637;1277;139305;-64
2022/04/03 07:03:46;;;;;;;12.40;5.20;;;;;;;0.58;63.62;99610.46;215112;1278;140160;-67
2022/04/03 07:08:49;;;;;;;7.80;3.80;;;;;;;0.92;63.42;99613.20;215494;1277;140607;-66
2022/04/03 07:13:52;;;;;;;8.00;3.90;;;;;;;1.40;62.74;99625.46;215740;1277;140296;-66
2022/04/03 07:18:54;;;;;;;8.10;4.40;;;;;;;1.68;61.95;99624.20;215677;1277;139712;-65
2022/04/03 07:23:57;;;;;;;6.60;4.10;;;;;;;1.79;61.49;99633.86;215586;1276;139926;-66
2022/04/03 07:29:00;;;;;;;4.60;4.10;;;;;;;1.91;61.09;99637.63;213985;1279;139633;-65
2022/04/03 07:34:03;;;;;;;4.50;3.60;;;;;;;2.18;60.79;99637.05;213305;1279;141456;-65
2022/04/03 07:39:09;;;;;;;8.50;4.50;;;;;;;2.54;60.27;99637.11;214203;1277;161207;-67
2022/04/03 07:44:12;;;;;;;6.80;4.40;;;;;;;2.67;59.71;99644.21;213916;1278;141928;-69
2022/04/03 07:49:18;;;;;;;7.30;4.20;;;;;;;3.05;60.18;99647.49;214576;1279;141134;-69
2022/04/03 07:54:21;;;;;;;9.30;4.50;;;;;;;3.51;59.44;99643.48;214480;1276;139905;-66
2022/04/03 07:59:23;;;;;;;4.10;3.80;;;;;;;3.47;58.39;99651.95;213701;1277;139135;-65
2022/04/03 08:04:27;;;;;;;8.00;3.40;;;;;;;3.20;57.86;99653.77;213535;1277;139933;-65
2022/04/03 08:09:30;;;;;;;6.10;4.30;;;;;;;3.04;57.28;99654.49;213658;1277;141436;-67
2022/04/03 08:14:33;;;;;;;4.90;3.10;;;;;;;3.08;56.68;99656.92;213668;1277;139285;-67
2022/04/03 08:19:35;;;;;;;4.40;2.10;;;;;;;3.26;56.21;99660.02;212862;1279;139115;-65
2022/04/03 08:24:37;;;;;;;2.80;2.60;;;;;;;3.13;55.36;99657.02;213429;1277;139164;-66
2022/04/03 08:29:41;;;;;;;3.40;2.40;;;;;;;3.00;54.81;99658.65;213250;1279;139606;-65
2022/04/03 08:34:49;;;;;;;2.60;2.20;;;;;;;2.83;54.67;99656.55;213774;1277;139589;-68
2022/04/03 08:39:52;;;;;;;7.10;4.30;;;;;;;2.63;54.76;99661.80;213875;1279;139961;-65
2022/04/03 08:44:55;;;;;;;4.50;2.50;;;;;;;2.47;53.88;99665.33;213015;1279;139766;-66
2022/04/03 08:50:00;;;;;;;5.40;3.70;;;;;;;2.48;54.50;99673.08;214419;1277;140925;-68
2022/04/03 08:55:04;;;;;;;5.80;3.30;;;;;;;2.57;53.80;99677.08;214930;1277;139861;-66
2022/04/03 09:00:09;;;;;;;2.30;2.20;;;;;;;2.58;53.52;99674.78;215544;1277;139569;-70
2022/04/03 09:05:13;;;;;;;5.60;3.20;;;;;;;2.63;53.51;99684.77;215593;1276;139871;-69
2022/04/03 09:10:17;;;;;;;8.50;5.60;;;;;;;2.78;53.36;99684.72;215582;1277;140802;-68
2022/04/03 09:15:22;;;;;;;3.30;2.30;;;;;;;2.92;52.81;99691.40;214359;1277;140475;-68
2022/04/03 09:20:30;;;;;;;1.80;1.50;;;;;;;3.04;52.18;99692.08;214412;1277;141204;-68
2022/04/03 09:25:43;;;;;;;2.30;2.10;;;;;;;3.08;51.87;99697.84;214380;1277;139094;-68
2022/04/03 09:30:49;;;;;;;2.40;2.20;;;;;;;3.10;51.87;99704.50;214096;1277;139170;-67
2022/04/03 09:35:59;;;;;;;2.90;2.70;;;;;;;3.23;51.63;99701.65;214788;1277;139986;-70
2022/04/03 09:41:02;;;;;;;2.80;2.20;;;;;;;3.41;51.49;99700.48;214148;1277;141173;-69
2022/04/03 09:46:14;;;;;;;2.40;2.20;;;;;;;3.49;51.07;99705.81;212581;1279;140646;-67
2022/04/03 09:51:22;;;;;;;2.60;2.40;;;;;;;3.51;50.93;99710.25;213374;1277;155044;-66
2022/04/03 09:56:28;;;;;;;1.80;1.60;;;;;;;3.61;50.44;99707.98;212864;1277;140195;-71
2022/04/03 10:01:41;;;;;;;2.20;2.00;;;;;;;3.60;49.96;99707.25;213954;1277;140537;-69
2022/04/03 10:06:44;;;;;;;1.90;1.80;;;;;;;3.60;49.70;99712.15;213684;1277;139893;-68
2022/04/03 10:11:47;;;;;;;2.90;2.10;;;;;;;3.64;49.73;99713.33;213195;1277;233349;-67
2022/04/03 10:16:52;;;;;;;2.30;2.10;;;;;;;3.76;49.54;99713.83;212632;1277;1512434;-67
2022/04/03 10:22:01;;;;;;;3.60;2.10;;;;;;;3.89;49.22;99711.77;214634;1277;140708;-70
2022/04/03 10:27:14;;;;;;;3.10;1.90;;;;;;;4.02;49.26;99707.10;213905;1277;140405;-65
2022/04/03 10:32:27;;;;;;;2.80;1.60;;;;;;;4.15;48.42;99710.13;213326;1277;140230;-68
2022/04/03 10:37:41;;;;;;;5.20;2.30;;;;;;;4.69;48.61;99707.95;213529;1277;139690;-67
2022/04/03 10:43:01;;;;;;;2.10;1.90;;;;;;;4.88;47.91;99702.46;213498;1279;139803;-68
2022/04/03 10:48:19;;;;;;;1.70;1.60;;;;;;;5.27;47.65;99693.02;214760;1277;140532;-71
2022/04/03 10:53:28;;;;;;;2.70;2.50;;;;;;;5.06;47.02;99686.73;214038;1279;143200;-71
2022/04/03 10:58:48;;;;;;;3.40;2.80;;;;;;;5.38;47.81;99681.88;213020;1277;143550;-67
2022/04/03 11:04:08;;;;;;;6.70;2.70;;;;;;;6.03;47.17;99676.59;213107;1277;140939;-69
2022/04/03 11:09:20;;;;;;;6.40;2.90;;;;;;;6.20;45.90;99681.00;215493;1277;140959;-71
2022/04/03 11:14:55;;;;;;;2.50;2.30;;;;;;;6.05;45.42;99677.27;215587;1277;140181;-70
2022/04/03 11:19:59;;;;;;;2.90;2.60;;;;;;;6.46;45.80;99670.20;215546;1277;139947;-71
2022/04/03 11:25:02;;;;;;;3.30;3.00;;;;;;;6.66;45.10;99672.09;215554;1277;142440;-71
2022/04/03 11:30:05;;;;;;;2.40;2.20;;;;;;;6.52;44.36;99670.55;215624;1277;140432;-71
2022/04/03 11:35:09;;;;;;;2.90;2.10;;;;;;;6.80;44.15;99653.71;215427;1277;139122;-71
2022/04/03 11:40:12;;;;;;;3.70;2.30;;;;;;;6.72;43.37;99660.57;215167;1277;140041;-69
2022/04/03 11:45:15;;;;;;;3.00;2.80;;;;;;;6.37;43.35;99660.27;214202;1277;139469;-68
2022/04/03 11:50:20;;;;;;;4.50;2.30;;;;;;;5.91;43.67;99656.63;214352;1276;139109;-71
2022/04/03 11:55:34;;;;;;;3.70;2.30;;;;;;;5.65;44.11;99654.04;212945;1277;141849;-69
2022/04/03 12:00:45;;;;;;;5.80;2.80;;;;;;;5.70;44.07;99658.64;213548;1277;139614;-67
2022/04/03 12:05:48;;;;;;;4.90;2.70;;;;;;;5.73;43.61;99658.63;214004;1277;163250;-69
2022/04/03 12:10:50;;;;;;;5.10;2.80;;;;;;;5.90;43.49;99654.14;213501;1279;140736;-70
2022/04/03 12:15:53;;;;;;;3.10;2.50;;;;;;;5.91;43.36;99653.98;212622;1279;140396;-67
2022/04/03 12:21:00;;;;;;;2.40;2.20;;;;;;;5.74;43.54;99663.92;213549;1277;141613;-68
2022/04/03 12:26:02;;;;;;;3.60;2.50;;;;;;;5.68;43.69;99659.45;214094;1277;139646;-70
2022/04/03 12:31:04;;;;;;;2.40;2.20;;;;;;;5.87;43.49;99653.13;213329;1277;139693;-68
2022/04/03 12:36:07;;;;;;;2.00;1.80;;;;;;;6.26;43.63;99651.06;213711;1277;141189;-68
2022/04/03 12:41:21;;;;;;;1.90;1.70;;;;;;;6.35;43.14;99650.54;213081;1277;140111;-69
2022/04/03 12:46:23;;;;;;;2.80;2.00;;;;;;;6.11;42.57;99654.39;214055;1277;139824;-70
2022/04/03 12:51:26;;;;;;;5.30;2.70;;;;;;;5.84;42.58;99658.10;214742;1277;139995;-69
2022/04/03 12:58:24;;;;;;;2.70;1.90;;;;;;;5.76;42.65;99651.02;214202;1277;141203;-67
2022/04/03 13:01:54;;;;;;;1.80;1.60;;;;;;;5.90;42.68;99642.30;213735;1277;140874;-70
2022/04/03 13:06:57;;;;;;;2.30;1.40;;;;;;;5.85;42.32;99640.34;214824;1278;140531;-72
2022/04/03 13:11:59;;;;;;;1.70;1.60;;;;;;;5.80;42.56;99637.66;212603;1279;142373;-66
2022/04/03 13:17:04;;;;;;;3.80;2.00;;;;;;;5.82;42.35;99629.02;213162;1279;141279;-68
2022/04/03 13:22:07;;;;;;;2.10;1.80;;;;;;;6.00;42.39;99624.63;215516;1279;140300;-72
2022/04/03 13:27:09;;;;;;;1.60;1.50;;;;;;;6.19;42.24;99628.22;215482;1277;139589;-70
2022/04/03 13:32:11;;;;;;;5.60;2.30;;;;;;;6.23;42.02;99629.20;215590;1277;139985;-69
2022/04/03 13:37:14;;;;;;;1.30;1.10;;;;;;;6.20;41.80;99628.59;215630;1277;139059;-70
2022/04/03 13:42:17;;;;;;;1.60;1.50;;;;;;;6.39;41.79;99620.42;215322;1277;139748;-69
2022/04/03 13:47:19;;;;;;;3.00;1.50;;;;;;;6.46;41.77;99619.98;215144;1277;141114;-68
2022/04/03 13:52:21;;;;;;;1.70;1.60;;;;;;;6.35;41.43;99615.68;213902;1277;140623;-68
2022/04/03 13:57:24;;;;;;;7.50;2.40;;;;;;;6.15;40.79;99618.44;213730;1277;142318;-68
2022/04/03 14:02:26;;;;;;;2.90;2.10;;;;;;;6.03;41.00;99614.20;213155;1277;140854;-68
2022/04/03 14:07:29;;;;;;;2.40;2.20;;;;;;;5.98;41.25;99610.30;213459;1277;140848;-68
2022/04/03 14:12:31;;;;;;;5.40;1.80;;;;;;;6.04;41.15;99612.29;213195;1279;140404;-68
2022/04/03 14:17:33;;;;;;;7.20;3.50;;;;;;;5.99;40.70;99610.13;212918;1279;140349;-68
2022/04/03 14:22:36;;;;;;;5.50;3.20;;;;;;;5.90;40.62;99602.61;213758;1279;142566;-69
2022/04/03 14:27:40;;;;;;;2.10;1.90;;;;;;;5.76;40.54;99595.88;212729;1277;140566;-69
2022/04/03 14:32:46;;;;;;;2.10;1.80;;;;;;;5.48;40.49;99601.77;213662;1278;139413;-68
2022/04/03 14:37:48;;;;;;;2.90;1.70;;;;;;;5.33;40.94;99602.45;213648;1279;139490;-68
2022/04/03 14:42:51;;;;;;;4.30;1.60;;;;;;;5.33;41.10;99601.63;213161;1279;139401;-68
2022/04/03 14:47:54;;;;;;;1.70;1.10;;;;;;;5.29;40.75;99598.48;214536;1277;139368;-69
2022/04/03 14:52:57;;;;;;;2.70;1.80;;;;;;;5.21;41.00;99593.41;213478;1277;139217;-68
2022/04/03 14:57:59;;;;;;;3.00;2.00;;;;;;;5.10;41.22;99602.27;213477;1276;139148;-68
2022/04/03 15:03:01;;;;;;;2.30;1.50;;;;;;;5.04;41.28;99597.48;214171;1276;139773;-71
2022/04/03 15:08:04;;;;;;;2.30;1.50;;;;;;;4.98;41.40;99598.48;214419;1277;139763;-66
2022/04/03 15:13:08;;;;;;;3.10;1.90;;;;;;;4.95;41.31;99600.86;213710;1278;140016;-67
2022/04/03 15:18:10;;;;;;;3.30;2.10;;;;;;;4.88;40.86;99598.84;215596;1277;139653;-71
2022/04/03 15:23:13;;;;;;;1.50;1.40;;;;;;;4.78;41.25;99600.16;213726;1277;139084;-68
2022/04/03 15:28:15;;;;;;;3.20;1.70;;;;;;;4.74;41.31;99600.67;215562;1277;140175;-71
2022/04/03 15:33:17;;;;;;;6.30;1.50;;;;;;;4.66;41.23;99605.48;215488;1277;140445;-70
2022/04/03 15:38:19;;;;;;;2.60;2.40;;;;;;;4.61;41.22;99610.11;215632;1277;139780;-71
2022/04/03 15:43:21;;;;;;;3.60;2.30;;;;;;;4.58;41.33;99609.63;214100;1278;139787;-71
2022/04/03 15:48:24;;;;;;;3.50;3.00;;;;;;;4.53;41.46;99607.42;214003;1278;139640;-67
2022/04/03 15:53:26;;;;;;;5.20;2.40;;;;;;;4.50;41.65;99608.42;215097;1278;139228;-68
2022/04/03 15:58:28;;;;;;;2.50;2.10;;;;;;;4.39;41.71;99609.73;213798;1277;139996;-70
2022/04/03 16:03:32;;;;;;;5.10;2.60;;;;;;;4.25;41.60;99619.58;213764;1277;139231;-68
2022/04/03 16:08:34;;;;;;;4.70;3.80;;;;;;;4.15;41.99;99623.05;213972;1277;163798;-67
2022/04/03 16:13:37;;;;;;;5.00;3.20;;;;;;;4.10;42.62;99625.80;213787;1278;140050;-67
2022/04/03 16:18:40;;;;;;;6.70;2.60;;;;;;;4.09;42.87;99630.77;213615;1278;139758;-68
2022/04/03 16:23:43;;;;;;;7.00;3.40;;;;;;;4.06;42.74;99632.50;213812;1277;142213;-68
2022/04/03 16:28:46;;;;;;;4.30;3.20;;;;;;;4.00;42.63;99636.20;213428;1278;151668;-69
2022/04/03 16:33:53;;;;;;;2.90;2.20;;;;;;;4.00;43.08;99634.70;213856;1279;202669;-67
2022/04/03 16:38:57;;;;;;;2.60;2.00;;;;;;;3.91;42.83;99634.91;213487;1278;140070;-68
2022/04/03 16:44:00;;;;;;;5.10;2.60;;;;;;;3.82;42.92;99636.30;213438;1277;140706;-67
2022/04/03 16:49:03;;;;;;;6.80;2.20;;;;;;;3.73;43.14;99634.58;214301;1279;139611;-69
2022/04/03 16:54:10;;;;;;;4.20;2.60;;;;;;;3.62;43.39;99636.21;212413;1279;139852;-68
2022/04/03 16:59:13;;;;;;;;;;;;;;;3.49;43.63;99636.57;213984;1278;139212;-68
2022/04/03 17:04:16;;;;;;;6.10;2.80;;;;;;;3.35;43.57;99639.22;214067;1277;127275;-68
2022/04/03 17:09:18;;;;;;;3.90;2.60;;;;;;;3.23;43.83;99636.14;213522;1278;141306;-67
2022/04/03 17:14:21;;;;;;;3.70;2.40;;;;;;;3.13;44.02;99642.10;213378;1277;139484;-67
2022/04/03 17:19:23;;;;;;;5.40;2.60;;;;;;;3.06;44.00;99646.98;213590;1277;139322;-66
2022/04/03 17:24:29;;;;;;;2.30;2.10;;;;;;;3.00;43.75;99653.50;214361;1278;140210;-71
2022/04/03 17:29:31;;;;;;;4.30;3.50;;;;;;;2.92;44.02;99657.17;215623;1277;140090;-71
2022/04/03 17:34:34;;;;;;;4.90;1.70;;;;;;;2.87;44.50;99658.05;215542;1278;139176;-70
2022/04/03 17:39:40;;;;;;;6.00;2.90;;;;;;;2.79;44.83;99658.98;215569;1277;140037;-71
2022/04/03 17:44:43;;;;;;;3.60;2.90;;;;;;;2.70;44.78;99662.70;215581;1277;139847;-71
2022/04/03 17:49:46;;;;;;;4.60;3.00;;;;;;;2.63;44.98;99672.85;215426;1277;140012;-70
2022/04/03 17:54:49;;;;;;;5.50;3.40;;;;;;;2.57;45.36;99679.47;214800;1278;139433;-68
2022/04/03 17:59:51;;;;;;;5.40;4.00;;;;;;;2.52;45.26;99684.46;214785;1277;140432;-68
2022/04/03 18:04:54;;;;;;;8.40;3.40;;;;;;;2.48;45.17;99687.27;214503;1278;141153;-69
2022/04/03 18:09:56;;;;;;;6.30;3.30;;;;;;;2.42;45.62;99689.41;213628;1278;140014;-66
2022/04/03 18:14:59;;;;;;;7.60;3.20;;;;;;;2.33;45.76;99691.52;213442;1278;139526;-67
2022/04/03 18:20:04;;;;;;;10.90;3.70;;;;;;;2.27;45.95;99693.61;213204;1278;139972;-69
2022/04/03 18:25:07;;;;;;;10.50;4.60;;;;;;;2.18;46.36;99695.23;213946;1277;140276;-67
2022/04/03 18:30:10;;;;;;;7.30;5.10;;;;;;;2.13;46.50;99695.45;214527;1278;141421;-67
2022/04/03 18:35:13;;;;;;;5.80;3.80;;;;;;;2.09;46.78;99699.98;214575;1278;139209;-68
2022/04/03 18:40:16;;;;;;;4.40;3.00;;;;;;;2.10;46.77;99703.63;213779;1279;140036;-69
2022/04/03 18:45:19;;;;;;;4.70;3.20;;;;;;;2.09;47.49;99705.92;213010;1278;139883;-66
2022/04/03 18:50:28;;;;;;;3.90;2.40;;;;;;;2.07;47.34;99706.86;212493;1278;141961;-66
2022/04/03 18:55:33;;;;;;;9.40;3.60;;;;;;;2.03;47.45;99712.98;213884;1278;141261;-65
2022/04/03 19:00:38;;;;;;;3.80;1.90;;;;;;;1.95;47.48;99719.47;213277;1279;245610;-67
2022/04/03 19:05:44;;;;;;;3.80;2.90;;;;;;;1.90;47.42;99721.39;214221;1278;139759;-67
2022/04/03 19:10:47;;;;;;;4.50;3.00;;;;;;;1.84;47.53;99724.73;214513;1277;141124;-67
2022/04/03 19:15:50;;;;;;;7.90;3.40;;;;;;;1.82;47.71;99728.08;214370;1277;140636;-69
2022/04/03 19:20:54;;;;;;;4.70;2.60;;;;;;;1.81;47.44;99725.77;214332;1278;139709;-68
2022/04/03 19:25:56;;;;;;;5.40;3.80;;;;;;;1.81;47.69;99728.75;214913;1278;139422;-67
2022/04/03 19:31:04;;;;;;;5.90;3.30;;;;;;;1.79;47.83;99726.55;215406;1277;139754;-68
2022/04/03 19:36:07;;;;;;;10.70;4.20;;;;;;;1.76;48.20;99724.10;215624;1277;139396;-69
2022/04/03 19:41:09;;;;;;;7.10;3.60;;;;;;;1.75;47.96;99728.98;215492;1277;139474;-69
2022/04/03 19:46:12;;;;;;;7.90;3.60;;;;;;;1.73;48.37;99727.38;214697;1277;141799;-70
2022/04/03 19:51:16;;;;;;;4.30;2.00;;;;;;;1.72;48.48;99728.08;215041;1277;139118;-68
2022/04/03 19:56:18;;;;;;;4.60;2.90;;;;;;;1.70;48.09;99729.10;214948;1277;139771;-70
2022/04/03 20:01:21;;;;;;;4.90;3.80;;;;;;;1.67;48.64;99723.96;214494;1277;139915;-70
2022/04/03 20:06:28;;;;;;;5.20;3.90;;;;;;;1.67;48.65;99726.27;213618;1279;139810;-67
2022/04/03 20:11:30;;;;;;;5.90;3.40;;;;;;;1.66;48.73;99728.50;213780;1279;140790;-70
2022/04/03 20:16:33;;;;;;;10.70;4.70;;;;;;;1.64;48.99;99725.64;214323;1277;139317;-66
2022/04/03 20:21:35;;;;;;;40.80;22.70;;;;;;;1.62;48.75;99728.14;214270;1277;139787;-67
2022/04/03 20:26:39;;;;;;;17.90;7.50;;;;;;;1.59;49.00;99732.69;214575;1278;140056;-67
2022/04/03 20:31:41;;;;;;;10.10;5.40;;;;;;;1.58;48.95;99735.92;212492;1278;139912;-63
2022/04/03 20:36:44;;;;;;;7.90;5.30;;;;;;;1.53;48.96;99734.39;213014;1277;142255;-66
2022/04/03 20:41:46;;;;;;;10.80;5.50;;;;;;;1.45;49.17;99732.37;213368;1278;141103;-64
2022/04/03 20:46:49;;;;;;;14.10;6.90;;;;;;;1.40;49.19;99731.27;213301;1278;141275;-65
2022/04/03 20:51:53;;;;;;;9.80;5.80;;;;;;;1.33;49.35;99729.52;213746;1277;151123;-68
2022/04/03 20:56:55;;;;;;;7.40;5.20;;;;;;;1.30;49.31;99732.57;213651;1279;140666;-68
2022/04/03 21:01:59;;;;;;;11.30;6.10;;;;;;;1.25;49.60;99731.35;212780;1277;140301;-65
2022/04/03 21:07:02;;;;;;;11.10;5.70;;;;;;;1.18;49.74;99728.79;212752;1277;140573;-65
2022/04/03 21:12:06;;;;;;;13.00;7.90;;;;;;;1.12;49.80;99733.27;213075;1278;140850;-63
2022/04/03 21:17:11;;;;;;;14.40;7.90;;;;;;;1.08;50.01;99728.95;212899;1277;140471;-66
2022/04/03 21:22:15;;;;;;;10.40;6.30;;;;;;;1.04;49.89;99729.42;214351;1277;140295;-66
2022/04/03 21:27:18;;;;;;;11.30;5.70;;;;;;;0.98;50.12;99727.78;213110;1277;141014;-66
2022/04/03 21:32:21;;;;;;;11.30;5.80;;;;;;;0.95;50.35;99724.02;212668;1278;141088;-65
2022/04/03 21:37:25;;;;;;;10.60;6.40;;;;;;;0.91;50.31;99725.02;214521;1277;140376;-65
2022/04/03 21:42:28;;;;;;;10.10;5.60;;;;;;;0.87;50.30;99731.50;214888;1277;140937;-69
2022/04/03 21:47:31;;;;;;;12.30;5.60;;;;;;;0.82;49.93;99723.83;215434;1277;139795;-69
2022/04/03 21:52:37;;;;;;;13.50;5.40;;;;;;;0.79;50.22;99727.87;215636;1277;247510;-69
2022/04/03 21:57:41;;;;;;;11.20;5.80;;;;;;;0.76;50.20;99729.05;215413;1277;141149;-65
2022/04/03 22:02:43;;;;;;;14.10;6.30;;;;;;;0.68;50.09;99729.21;215282;1277;139305;-69
2022/04/03 22:07:46;;;;;;;13.30;4.90;;;;;;;0.59;50.19;99730.80;214354;1277;140854;-67
2022/04/03 22:12:49;;;;;;;17.30;15.60;;;;;;;0.48;50.07;99730.66;214227;1277;140072;-66
2022/04/03 22:17:52;;;;;;;8.60;7.10;;;;;;;0.38;50.28;99727.94;213768;1277;570423;-64
2022/04/03 22:22:56;;;;;;;8.60;3.60;;;;;;;0.30;50.35;99730.16;214025;1277;140128;-65
2022/04/03 22:27:59;;;;;;;7.50;4.00;;;;;;;0.20;50.44;99729.67;213457;1277;140955;-65
2022/04/03 22:33:03;;;;;;;7.60;3.00;;;;;;;0.10;50.59;99725.39;214028;1277;141062;-68
2022/04/03 22:38:07;;;;;;;15.80;4.60;;;;;;;0.01;50.76;99725.30;213149;1280;140584;-67
2022/04/03 22:43:11;;;;;;;10.80;4.50;;;;;;;-0.07;50.90;99725.88;213614;1277;139967;-68
2022/04/03 22:48:14;;;;;;;10.30;4.80;;;;;;;-0.15;51.30;99729.18;212803;1277;139452;-67
2022/04/03 22:53:18;;;;;;;9.20;4.40;;;;;;;-0.23;51.24;99723.45;212696;1278;140090;-67
2022/04/03 22:58:22;;;;;;;8.10;5.50;;;;;;;-0.32;51.49;99724.59;214263;1279;140315;-70
2022/04/03 23:03:24;;;;;;;10.10;4.50;;;;;;;-0.41;51.54;99719.23;214419;1277;138920;-68
2022/04/03 23:08:28;;;;;;;8.90;4.50;;;;;;;-0.48;51.74;99712.68;212480;1279;140156;-65
2022/04/03 23:13:31;;;;;;;3.80;2.30;;;;;;;-0.56;52.00;99707.92;213337;1277;139664;-65
2022/04/03 23:18:34;;;;;;;9.90;4.70;;;;;;;-0.64;52.25;99705.69;213225;1277;141680;-67
2022/04/03 23:23:37;;;;;;;7.30;4.40;;;;;;;-0.67;52.52;99704.45;213933;1279;139329;-66
2022/04/03 23:28:41;;;;;;;4.20;3.30;;;;;;;-0.61;52.76;99702.92;214445;1277;140139;-65